Metar/TAF

[source: ADDS]
METAR
KSNA 250053Z 23008KT 10SM FEW250 14/01 A3021 RMK AO2 SLP230 T01440006 =
TAF
KSNA 242341Z 2500/2524 23009KT P6SM SKC FM250300 VRB04KT P6SM SKC FM251100 VRB04KT P6SM SKC WS015/06025KT FM252000 23009KT P6SM SKC =
SR / SS: 14:24 / 01:44 UTC ( 2018-02-24)

Sectional

Sectional Chart - Southern California

Airport Diagram

airport diagram - John Wayne Airport, Orange County

IFR Chart

IFR Chart - Southern California